createdAt,value
2023-03-17T00:00:29.579Z,12.23
2023-03-17T00:02:59.830Z,14.32
2023-03-17T00:05:29.970Z,11.75
2023-03-17T00:07:59.215Z,10.45
2023-03-17T00:10:28.890Z,11.70
2023-03-17T00:12:58.515Z,12.18
2023-03-17T00:15:30.673Z,13.55
2023-03-17T00:18:00.030Z,10.57
2023-03-17T00:20:31.173Z,11.50
2023-03-17T00:23:01.501Z,12.18
2023-03-17T00:25:31.038Z,9.45
2023-03-17T00:28:00.929Z,12.20
2023-03-17T00:30:32.987Z,10.68
2023-03-17T00:33:02.215Z,11.07
2023-03-17T00:35:32.355Z,11.35
2023-03-17T00:38:01.768Z,11.43
2023-03-17T00:40:32.710Z,9.93
2023-03-17T00:43:03.190Z,9.18
2023-03-17T00:45:35.167Z,10.55
2023-03-17T00:48:04.515Z,11.20
2023-03-17T00:50:33.694Z,9.93
2023-03-17T00:53:03.657Z,9.73
2023-03-17T00:55:33.153Z,11.57
2023-03-17T00:58:02.939Z,9.95
2023-03-17T01:00:34.771Z,10.55
2023-03-17T01:03:03.988Z,9.63
2023-03-17T01:05:33.188Z,10.35
2023-03-17T01:08:02.372Z,10.55
2023-03-17T01:10:32.773Z,10.82
2023-03-17T01:13:02.824Z,11.50
2023-03-17T01:15:32.549Z,12.23
2023-03-17T01:18:04.358Z,11.45
2023-03-17T01:20:34.543Z,10.05
2023-03-17T01:23:04.199Z,10.13
2023-03-17T01:25:33.781Z,11.20
2023-03-17T01:28:03.468Z,10.57
2023-03-17T01:30:33.499Z,10.77
2023-03-17T01:33:05.274Z,10.75
2023-03-17T01:35:35.307Z,11.35
2023-03-17T01:38:04.563Z,10.77
2023-03-17T01:40:34.520Z,9.25
2023-03-17T01:43:05.971Z,10.00
2023-03-17T01:45:50.260Z,10.50
2023-03-17T01:48:22.034Z,10.95
2023-03-17T01:50:51.770Z,11.35
2023-03-17T01:53:21.483Z,9.73
2023-03-17T01:55:50.697Z,11.93
2023-03-17T01:58:20.676Z,13.77
2023-03-17T02:00:50.376Z,11.18
2023-03-17T02:03:22.593Z,12.05
2023-03-17T02:05:52.923Z,12.50
2023-03-17T02:08:22.091Z,12.10
2023-03-17T02:10:52.430Z,10.68
2023-03-17T02:13:22.021Z,9.65
2023-03-17T02:15:51.585Z,11.35
2023-03-17T02:18:23.868Z,11.75
2023-03-17T02:21:16.887Z,12.20
2023-03-17T02:23:48.633Z,10.30
2023-03-17T02:26:17.928Z,11.63
2023-03-17T02:28:48.206Z,10.45
2023-03-17T02:31:17.476Z,9.95
2023-03-17T02:33:46.704Z,9.98
2023-03-17T02:36:16.379Z,11.07
2023-03-17T02:38:48.331Z,11.25
2023-03-17T02:41:17.690Z,12.05
2023-03-17T02:43:47.022Z,12.32
2023-03-17T02:46:16.915Z,11.85
2023-03-17T02:48:46.182Z,11.10
2023-03-17T02:51:15.533Z,10.85
2023-03-17T02:53:44.760Z,12.30
2023-03-17T02:56:16.861Z,10.18
2023-03-17T02:58:46.506Z,10.68
2023-03-17T03:01:16.712Z,10.35
2023-03-17T03:03:45.977Z,12.93
2023-03-17T03:06:15.179Z,11.13
2023-03-17T03:08:44.391Z,10.63
2023-03-17T03:11:16.709Z,12.90
2023-03-17T03:13:46.409Z,11.52
2023-03-17T03:16:15.730Z,10.95
2023-03-17T03:18:44.934Z,11.52
2023-03-17T03:21:14.398Z,12.32
2023-03-17T03:23:43.594Z,11.48
2023-03-17T03:26:12.993Z,11.70
2023-03-17T03:28:44.904Z,11.52
2023-03-17T03:31:14.212Z,10.55
2023-03-17T03:33:43.471Z,10.60
2023-03-17T03:36:13.492Z,10.82
2023-03-17T03:38:42.789Z,11.15
2023-03-17T03:41:11.980Z,10.95
2023-03-17T03:43:41.136Z,10.82
2023-03-17T03:46:12.973Z,10.60
2023-03-17T03:48:42.185Z,11.73
2023-03-17T03:51:11.367Z,10.15
2023-03-17T03:53:41.001Z,11.05
2023-03-17T03:56:10.406Z,10.52
2023-03-17T03:58:39.597Z,12.60
2023-03-17T04:01:09.529Z,11.15
2023-03-17T04:03:41.323Z,10.98
2023-03-17T04:06:11.373Z,10.63
2023-03-17T04:08:40.580Z,11.05
2023-03-17T04:11:09.789Z,13.15
2023-03-17T04:13:38.986Z,10.88
2023-03-17T04:16:08.660Z,12.52
2023-03-17T04:18:38.155Z,12.98
2023-03-17T04:21:10.274Z,11.40
2023-03-17T04:23:39.578Z,11.15
2023-03-17T04:26:08.774Z,11.13
2023-03-17T04:28:37.932Z,13.00
2023-03-17T04:31:07.679Z,11.88
2023-03-17T04:33:36.990Z,10.52
2023-03-17T04:36:07.812Z,10.70
2023-03-17T04:38:39.642Z,10.50
2023-03-17T04:41:08.821Z,11.30
2023-03-17T04:43:38.017Z,10.80
2023-03-17T04:46:07.359Z,10.43
2023-03-17T04:48:36.814Z,11.80
2023-03-17T04:51:06.164Z,11.68
2023-03-17T04:53:35.367Z,10.20
2023-03-17T04:56:07.355Z,10.73
2023-03-17T04:58:36.658Z,11.75
2023-03-17T05:01:06.350Z,10.80
2023-03-17T05:03:35.643Z,10.95
2023-03-17T05:06:05.059Z,13.13
2023-03-17T05:08:34.268Z,10.43
2023-03-17T05:11:03.503Z,11.48
2023-03-17T05:13:35.912Z,13.50
2023-03-17T05:16:05.115Z,10.02
2023-03-17T05:18:34.317Z,13.05
2023-03-17T05:21:03.710Z,10.38
2023-03-17T05:23:32.918Z,12.13
2023-03-17T05:26:02.089Z,10.43
2023-03-17T05:28:31.294Z,12.05
2023-03-17T05:31:03.621Z,11.23
2023-03-17T05:33:33.065Z,10.77
2023-03-17T05:36:02.486Z,11.10
2023-03-17T05:38:31.981Z,11.68
2023-03-17T05:41:02.110Z,13.80
2023-03-17T05:43:31.313Z,12.57
2023-03-17T05:46:03.945Z,11.90
2023-03-17T05:48:33.240Z,12.57
2023-03-17T05:51:02.644Z,11.18
2023-03-17T05:53:31.916Z,10.23
2023-03-17T05:56:01.216Z,13.07
2023-03-17T05:58:30.824Z,13.77
2023-03-17T06:01:00.236Z,12.88
2023-03-17T06:03:32.077Z,13.77
2023-03-17T06:06:01.680Z,11.55
2023-03-17T06:08:30.871Z,11.90
2023-03-17T06:11:00.332Z,12.60
2023-03-17T06:13:29.575Z,11.43
2023-03-17T06:15:58.904Z,13.15
2023-03-17T06:18:28.156Z,11.93
2023-03-17T06:20:59.959Z,11.13
2023-03-17T06:23:29.156Z,12.05
2023-03-17T06:25:58.332Z,12.55
2023-03-17T06:28:27.531Z,10.60
2023-03-17T06:30:56.882Z,12.40
2023-03-17T06:33:26.202Z,10.40
2023-03-17T06:35:55.453Z,11.05
2023-03-17T06:38:27.381Z,11.65
2023-03-17T06:40:56.542Z,12.00
2023-03-17T06:43:25.740Z,10.43
2023-03-17T06:45:55.178Z,10.85
2023-03-17T06:48:25.072Z,10.48
2023-03-17T06:50:54.323Z,12.93
2023-03-17T06:53:23.603Z,11.98
2023-03-17T06:55:56.315Z,12.25
2023-03-17T06:58:25.823Z,11.23
2023-03-17T07:00:56.107Z,11.75
2023-03-17T07:03:25.615Z,12.32
2023-03-17T07:05:54.974Z,10.73
2023-03-17T07:08:24.148Z,9.73
2023-03-17T07:10:56.106Z,11.15
2023-03-17T07:13:25.848Z,11.43
2023-03-17T07:15:55.590Z,11.68
2023-03-17T07:18:25.579Z,9.77
2023-03-17T07:20:54.767Z,13.18
2023-03-17T07:23:24.373Z,11.10
2023-03-17T07:25:57.331Z,10.60
2023-03-17T07:28:26.722Z,10.30
2023-03-17T07:30:57.903Z,12.25
2023-03-17T07:33:27.235Z,11.30
2023-03-17T07:35:56.799Z,10.95
2023-03-17T07:38:26.030Z,10.25
2023-03-17T07:40:57.955Z,9.95
2023-03-17T07:43:27.157Z,12.18
2023-03-17T07:45:56.438Z,13.57
2023-03-17T07:48:25.721Z,10.93
2023-03-17T07:50:54.897Z,11.93
2023-03-17T07:53:24.110Z,11.40
2023-03-17T07:55:53.303Z,10.63
2023-03-17T07:58:25.650Z,10.07
2023-03-17T08:00:55.013Z,10.02
2023-03-17T08:03:24.337Z,11.30
2023-03-17T08:05:55.371Z,10.00
2023-03-17T08:10:53.923Z,11.15
2023-03-17T08:13:25.979Z,11.23
2023-03-17T08:15:55.172Z,10.20
2023-03-17T08:18:24.392Z,9.75
2023-03-17T08:20:56.329Z,9.27
2023-03-17T08:23:26.665Z,10.88
2023-03-17T08:25:58.891Z,11.57
2023-03-17T08:28:30.719Z,9.77
2023-03-17T08:31:10.413Z,10.57
2023-03-17T08:33:42.350Z,10.57
2023-03-17T08:36:12.824Z,10.18
2023-03-17T08:38:42.303Z,10.63
2023-03-17T08:41:12.347Z,10.73
2023-03-17T08:43:44.379Z,9.50
2023-03-17T08:46:16.936Z,11.27
2023-03-17T08:48:47.153Z,12.77
2023-03-17T08:51:18.439Z,10.23
2023-03-17T08:53:48.637Z,10.80
2023-03-17T08:56:17.825Z,13.23
2023-03-17T08:58:49.899Z,12.13
2023-03-17T09:01:20.866Z,11.20
2023-03-17T09:06:19.110Z,13.05
2023-03-17T09:08:50.962Z,11.55
2023-03-17T09:11:21.117Z,10.20
2023-03-17T09:13:52.889Z,10.87
2023-03-17T09:16:23.273Z,10.50
2023-03-17T09:18:52.553Z,12.82
2023-03-17T09:21:22.315Z,12.45
2023-03-17T09:23:51.527Z,12.68
2023-03-17T09:26:20.743Z,11.15
2023-03-17T09:28:49.934Z,11.85
2023-03-17T09:31:21.778Z,11.93
2023-03-17T09:33:52.415Z,11.65
2023-03-17T09:36:21.630Z,13.25
2023-03-17T09:38:51.269Z,12.82
2023-03-17T09:41:26.155Z,14.07
2023-03-17T09:43:56.310Z,11.90
2023-03-17T09:46:31.679Z,11.27
2023-03-17T09:49:02.057Z,12.18
2023-03-17T09:51:31.606Z,13.10
2023-03-17T09:54:02.498Z,12.18
2023-03-17T09:56:32.983Z,11.70
2023-03-17T09:59:03.983Z,11.00
2023-03-17T10:04:05.241Z,12.20
2023-03-17T10:06:37.820Z,12.00
2023-03-17T10:09:13.882Z,18.92
2023-03-17T10:11:43.630Z,12.30
2023-03-17T10:14:33.905Z,11.88
2023-03-17T10:17:03.595Z,12.32
2023-03-17T10:19:35.871Z,13.98
2023-03-17T10:22:05.872Z,12.88
2023-03-17T10:24:35.714Z,12.32
2023-03-17T10:27:06.433Z,16.77
2023-03-17T10:29:36.153Z,13.32
2023-03-17T10:32:05.934Z,12.07
2023-03-17T10:34:38.189Z,11.43
2023-03-17T10:37:08.769Z,13.65
2023-03-17T10:39:44.783Z,13.40
2023-03-17T10:42:15.542Z,11.77
2023-03-17T10:44:46.094Z,11.90
2023-03-17T10:47:30.344Z,10.43
2023-03-17T10:50:02.708Z,13.07
2023-03-17T10:52:33.351Z,13.18
2023-03-17T10:55:07.761Z,11.73
2023-03-17T10:57:38.955Z,10.43
2023-03-17T11:00:09.906Z,12.70
2023-03-17T11:02:39.487Z,12.52
2023-03-17T11:05:20.231Z,11.27
2023-03-17T11:07:49.441Z,12.48
2023-03-17T11:10:20.533Z,11.77
2023-03-17T11:15:20.447Z,11.20
2023-03-17T11:17:51.415Z,11.37
2023-03-17T11:20:30.594Z,12.32
2023-03-17T11:23:02.245Z,12.63
2023-03-17T11:25:32.183Z,13.13
2023-03-17T11:28:02.877Z,13.32
2023-03-17T11:30:33.995Z,13.75
2023-03-17T11:35:46.846Z,11.85
2023-03-17T11:38:19.510Z,11.52
2023-03-17T11:40:52.464Z,12.30
2023-03-17T11:43:24.501Z,11.45
2023-03-17T11:45:54.503Z,11.10
2023-03-17T11:48:27.881Z,11.38
2023-03-17T11:51:01.399Z,11.57
2023-03-17T11:53:36.619Z,13.15
2023-03-17T11:56:06.470Z,12.45
2023-03-17T11:58:36.333Z,12.05
2023-03-17T12:01:09.062Z,11.32
2023-03-17T12:03:40.347Z,11.88
2023-03-17T12:06:13.939Z,12.05
2023-03-17T12:08:45.542Z,12.30
2023-03-17T12:11:15.445Z,12.23
2023-03-17T12:13:46.668Z,13.50
2023-03-17T12:16:17.508Z,12.32
2023-03-17T12:18:48.825Z,15.40
2023-03-17T12:21:23.412Z,14.18
2023-03-17T12:23:53.067Z,12.80
2023-03-17T12:26:24.021Z,14.18
2023-03-17T12:28:55.646Z,13.23
2023-03-17T12:31:26.628Z,13.07
2023-03-17T12:33:58.806Z,19.00
2023-03-17T12:36:32.656Z,12.85
2023-03-17T12:39:05.329Z,13.95
2023-03-17T12:41:56.828Z,15.70
2023-03-17T12:44:29.314Z,13.02
2023-03-17T12:47:03.839Z,15.30
2023-03-17T12:49:37.170Z,13.55
2023-03-17T12:52:12.511Z,13.77
2023-03-17T12:54:41.727Z,13.63
2023-03-17T12:57:13.680Z,13.80
2023-03-17T12:59:44.446Z,13.60
2023-03-17T13:02:18.181Z,12.70
2023-03-17T13:04:53.583Z,14.07
2023-03-17T13:07:26.966Z,14.35
2023-03-17T13:10:23.040Z,15.60
2023-03-17T13:12:58.656Z,14.85
2023-03-17T13:15:31.672Z,22.15
2023-03-17T13:18:24.097Z,13.60
2023-03-17T13:20:54.572Z,13.35
2023-03-17T13:23:35.746Z,13.57
2023-03-17T13:28:42.975Z,14.77
2023-03-17T13:31:13.199Z,13.55
2023-03-17T13:33:46.519Z,13.38
2023-03-17T13:36:19.556Z,15.45
2023-03-17T13:39:18.866Z,14.15
2023-03-17T13:42:08.761Z,15.02
2023-03-17T13:44:49.469Z,15.18
2023-03-17T13:47:20.564Z,12.85
2023-03-17T13:49:50.867Z,14.57
2023-03-17T13:52:20.956Z,14.27
2023-03-17T13:54:50.680Z,15.10
2023-03-17T13:57:32.372Z,14.65
2023-03-17T14:00:07.205Z,14.52
2023-03-17T14:02:37.820Z,13.70
2023-03-17T14:05:10.133Z,21.83
2023-03-17T14:07:43.592Z,33.00
2023-03-17T14:10:15.921Z,16.52
2023-03-17T14:12:50.272Z,15.40
2023-03-17T14:15:22.842Z,16.65
2023-03-17T14:17:53.136Z,14.35
2023-03-17T14:20:23.726Z,15.32
2023-03-17T14:22:56.231Z,21.63
2023-03-17T14:25:26.253Z,16.23
2023-03-17T14:27:58.158Z,15.57
2023-03-17T14:30:28.061Z,15.85
2023-03-17T14:32:59.357Z,15.48
2023-03-17T14:35:32.256Z,16.77
2023-03-17T14:38:02.250Z,19.67
2023-03-17T14:40:32.525Z,15.35
2023-03-17T14:43:04.291Z,14.48
2023-03-17T14:45:34.422Z,16.75
2023-03-17T14:48:04.293Z,17.73
2023-03-17T14:50:33.963Z,16.92
2023-03-17T14:53:03.402Z,17.85
2023-03-17T14:55:36.550Z,17.90
2023-03-17T14:58:12.683Z,18.98
2023-03-17T15:00:46.212Z,19.30
2023-03-17T15:03:19.261Z,19.38
2023-03-17T15:05:49.114Z,19.48
2023-03-17T15:08:36.085Z,20.20
2023-03-17T15:11:05.869Z,18.67
2023-03-17T15:13:38.747Z,18.77
2023-03-17T15:16:08.662Z,19.50
2023-03-17T15:18:38.011Z,18.80
2023-03-17T15:21:07.579Z,18.55
2023-03-17T15:23:39.215Z,18.10
2023-03-17T15:26:10.299Z,17.67
2023-03-17T15:31:14.824Z,18.70
2023-03-17T15:33:44.091Z,20.35
2023-03-17T15:36:29.321Z,17.40
2023-03-17T15:39:00.852Z,22.48
2023-03-17T15:41:30.143Z,19.67
2023-03-17T15:43:59.503Z,19.75
2023-03-17T15:46:32.126Z,19.45
2023-03-17T15:49:01.505Z,19.23
2023-03-17T15:51:30.958Z,18.52
2023-03-17T15:54:00.165Z,20.25
2023-03-17T15:56:29.485Z,17.58
2023-03-17T15:58:58.693Z,20.38
2023-03-17T16:01:28.158Z,18.67
2023-03-17T16:03:59.976Z,18.45
2023-03-17T16:06:29.250Z,18.60
2023-03-17T16:08:58.446Z,19.33
2023-03-17T16:11:28.580Z,23.23
2023-03-17T16:13:57.887Z,22.07
2023-03-17T16:16:28.752Z,28.02
2023-03-17T16:19:00.600Z,24.08
2023-03-17T16:21:29.803Z,20.52
2023-03-17T16:23:58.983Z,22.92
2023-03-17T16:26:28.235Z,21.83
2023-03-17T16:28:57.510Z,17.70
2023-03-17T16:31:29.552Z,22.67
2023-03-17T16:34:01.542Z,22.20
2023-03-17T16:36:31.153Z,22.05
2023-03-17T16:39:00.366Z,15.60
2023-03-17T16:41:30.722Z,16.02
2023-03-17T16:44:00.748Z,18.52
2023-03-17T16:46:32.676Z,16.48
2023-03-17T16:49:06.357Z,26.25
2023-03-17T16:51:35.591Z,24.63
2023-03-17T16:54:04.811Z,24.67
2023-03-17T16:56:34.177Z,15.85
2023-03-17T16:59:03.372Z,15.10
2023-03-17T17:01:32.622Z,14.82
2023-03-17T17:04:01.863Z,14.52
2023-03-17T17:06:33.710Z,15.40
2023-03-17T17:09:02.894Z,16.13
2023-03-17T17:11:32.095Z,16.00
2023-03-17T17:14:01.318Z,16.55
2023-03-17T17:16:31.141Z,14.77
2023-03-17T17:19:00.499Z,14.93
2023-03-17T17:21:31.135Z,17.73
2023-03-17T17:24:02.909Z,16.67
2023-03-17T17:26:32.105Z,19.52
2023-03-17T17:29:01.338Z,17.38
2023-03-17T17:31:30.636Z,15.63
2023-03-17T17:33:59.887Z,16.17
2023-03-17T17:36:29.113Z,16.90
2023-03-17T17:38:58.289Z,17.25
2023-03-17T17:41:32.451Z,16.30
2023-03-17T17:44:01.853Z,16.58
2023-03-17T17:46:31.334Z,15.38
2023-03-17T17:49:00.555Z,15.80
2023-03-17T17:51:29.881Z,13.95
2023-03-17T17:53:59.048Z,16.48
2023-03-17T17:56:31.014Z,15.90
2023-03-17T17:59:00.558Z,15.13
2023-03-17T18:01:29.794Z,14.73
2023-03-17T18:03:58.993Z,15.68
2023-03-17T18:06:28.272Z,15.48
2023-03-17T18:08:59.268Z,15.48
2023-03-17T18:11:31.074Z,15.57
2023-03-17T18:14:00.282Z,14.77
2023-03-17T18:16:29.618Z,15.45
2023-03-17T18:19:00.353Z,14.35
2023-03-17T18:21:29.547Z,14.02
2023-03-17T18:23:58.741Z,15.27
2023-03-17T18:26:28.557Z,14.85
2023-03-17T18:29:00.333Z,14.70
2023-03-17T18:31:30.503Z,14.80
2023-03-17T18:34:01.169Z,16.30
2023-03-17T18:36:30.433Z,15.15
2023-03-17T18:38:59.665Z,15.52
2023-03-17T18:41:28.865Z,13.18
2023-03-17T18:44:00.776Z,14.38
2023-03-17T18:46:29.948Z,14.05
2023-03-17T18:48:59.167Z,14.10
2023-03-17T18:51:28.407Z,13.63
2023-03-17T18:53:57.692Z,15.50
2023-03-17T18:56:29.224Z,14.30
2023-03-17T18:59:01.632Z,15.23
2023-03-17T19:01:31.149Z,14.75
2023-03-17T19:04:00.651Z,14.98
2023-03-17T19:06:29.815Z,14.98
2023-03-17T19:08:59.030Z,14.13
2023-03-17T19:11:28.213Z,17.05
2023-03-17T19:13:58.335Z,18.02
2023-03-17T19:16:30.865Z,19.00
2023-03-17T19:19:00.127Z,18.38
2023-03-17T19:21:29.778Z,21.40
2023-03-17T19:23:59.774Z,21.98
2023-03-17T19:26:30.421Z,22.73
2023-03-17T19:28:59.706Z,21.13
2023-03-17T19:31:31.484Z,17.40
2023-03-17T19:34:00.695Z,17.63
2023-03-17T19:36:30.092Z,16.33
2023-03-17T19:38:59.312Z,17.67
2023-03-17T19:41:32.297Z,24.25
2023-03-17T19:44:01.508Z,25.15
2023-03-17T19:46:33.500Z,25.05
2023-03-17T19:49:03.039Z,22.77
2023-03-17T19:51:32.895Z,22.75
2023-03-17T19:54:02.253Z,24.35
2023-03-17T19:56:31.979Z,22.42
2023-03-17T19:59:01.413Z,22.20
2023-03-17T20:01:33.231Z,21.27
2023-03-17T20:04:02.483Z,21.23
2023-03-17T20:06:32.044Z,22.38
2023-03-17T20:09:01.367Z,21.55
2023-03-17T20:11:33.762Z,18.92
2023-03-17T20:14:03.060Z,19.77
2023-03-17T20:16:36.185Z,25.40
2023-03-17T20:19:05.514Z,25.42
2023-03-17T20:21:34.770Z,23.40
2023-03-17T20:24:04.076Z,23.08
2023-03-17T20:26:34.018Z,25.17
2023-03-17T20:29:03.237Z,45.25
2023-03-17T20:31:35.040Z,41.65
2023-03-17T20:34:04.534Z,33.30
2023-03-17T20:36:33.688Z,24.08
2023-03-17T20:39:03.017Z,19.88
2023-03-17T20:41:32.281Z,16.73
2023-03-17T20:44:01.718Z,18.15
2023-03-17T20:46:31.258Z,19.50
2023-03-17T20:49:04.131Z,19.15
2023-03-17T20:51:33.960Z,20.20
2023-03-17T20:54:03.445Z,23.80
2023-03-17T20:56:33.883Z,26.00
2023-03-17T20:59:05.146Z,23.58
2023-03-17T21:01:35.697Z,21.58
2023-03-17T21:04:09.232Z,22.27
2023-03-17T21:06:38.602Z,23.77
2023-03-17T21:09:07.840Z,20.38
2023-03-17T21:11:37.638Z,19.73
2023-03-17T21:14:07.894Z,21.70
2023-03-17T21:16:38.785Z,20.65
2023-03-17T21:19:11.199Z,20.55
2023-03-17T21:21:40.399Z,18.52
2023-03-17T21:24:10.313Z,22.40
2023-03-17T21:26:40.213Z,18.05
2023-03-17T21:29:10.363Z,16.90
2023-03-17T21:31:39.589Z,20.53
2023-03-17T21:34:12.360Z,18.33
2023-03-17T21:36:41.541Z,18.42
2023-03-17T21:39:11.526Z,18.50
2023-03-17T21:41:40.953Z,17.17
2023-03-17T21:44:11.997Z,20.77
2023-03-17T21:49:13.265Z,20.75
2023-03-17T21:51:42.445Z,17.85
2023-03-17T21:54:11.654Z,20.33
2023-03-17T21:56:41.520Z,20.42
2023-03-17T21:59:12.428Z,19.77
2023-03-17T22:01:41.843Z,21.73
2023-03-17T22:04:14.103Z,21.08
2023-03-17T22:06:43.392Z,21.42
2023-03-17T22:09:13.216Z,23.15
2023-03-17T22:11:43.079Z,22.83
2023-03-17T22:14:17.253Z,22.20
2023-03-17T22:16:46.590Z,22.20
2023-03-17T22:19:21.087Z,23.58
2023-03-17T22:21:50.545Z,23.00
2023-03-17T22:24:19.787Z,22.95
2023-03-17T22:26:49.275Z,20.70
2023-03-17T22:29:18.714Z,20.48
2023-03-17T22:31:47.960Z,22.02
2023-03-17T22:34:20.226Z,22.63
2023-03-17T22:36:49.432Z,21.77
2023-03-17T22:39:18.644Z,25.23
2023-03-17T22:41:47.832Z,25.92
2023-03-17T22:44:17.250Z,23.23
2023-03-17T22:46:46.504Z,22.45
2023-03-17T22:49:15.853Z,24.20
2023-03-17T22:51:48.264Z,23.55
2023-03-17T22:54:18.796Z,21.48
2023-03-17T22:56:48.617Z,22.88
2023-03-17T22:59:17.816Z,22.13
2023-03-17T23:01:47.039Z,24.60
2023-03-17T23:04:16.746Z,23.20
2023-03-17T23:06:48.933Z,26.80
2023-03-17T23:09:18.813Z,28.38
2023-03-17T23:11:48.037Z,27.00
2023-03-17T23:14:17.244Z,26.58
2023-03-17T23:16:46.669Z,24.58
2023-03-17T23:19:15.933Z,21.58
2023-03-17T23:21:47.697Z,21.90
2023-03-17T23:24:16.943Z,20.67
2023-03-17T23:26:46.216Z,21.35
2023-03-17T23:29:15.456Z,20.60
2023-03-17T23:31:44.806Z,23.83
2023-03-17T23:34:14.190Z,26.15
2023-03-17T23:36:43.422Z,24.17
2023-03-17T23:39:15.512Z,22.55
2023-03-17T23:41:45.148Z,23.52
2023-03-17T23:44:14.402Z,28.25
2023-03-17T23:46:45.038Z,22.70
2023-03-17T23:49:14.920Z,23.60
2023-03-17T23:51:44.238Z,23.52
2023-03-17T23:54:16.581Z,20.08
2023-03-17T23:56:45.852Z,17.40
2023-03-17T23:59:15.075Z,19.55
